Time;durP1;ratioP1;P1;durP2;ratioP2;P2;SDS_P1;SDS_P2;PMS_P1;PMS_P2;Temp;Humidity;BMP_temperature;BMP_pressure;BME280_temperature;BME280_humidity;BME280_pressure;Samples;Min_cycle;Max_cycle;Signal;HPM_P1;HPM_P2
2024/02/23 00:04:25;;;;;;;2.4;1.1;;;;;;;10.25;67.05;96826.666666667;;;;
2024/02/23 00:15:27;;;;;;;2.4;1.1;;;;;;;10.21;67.46;96836.666666667;;;;
2024/02/23 00:26:27;;;;;;;2.4;1.1;;;;;;;10.17;67.73;96820;;;;
2024/02/23 00:36:25;;;;;;;2.6;1.1;;;;;;;10.09;68.87;96813.333333333;;;;
2024/02/23 00:47:25;;;;;;;2.6;1.1;;;;;;;10.06;69.08;96811.666666667;;;;
2024/02/23 00:57:29;;;;;;;2.6;1.2;;;;;;;9.97;69.55;96810;;;;
2024/02/23 01:08:25;;;;;;;2.6;1.2;;;;;;;9.84;72.14;96800;;;;
2024/02/23 01:19:25;;;;;;;2.6;1.2;;;;;;;9.67;75.12;96806.666666667;;;;
2024/02/23 01:29:25;;;;;;;2.9;1.5;;;;;;;9.5;77.3;96800;;;;
2024/02/23 01:39:25;;;;;;;2.9;1.5;;;;;;;9.38;78.29;96788.333333333;;;;
2024/02/23 01:50:25;;;;;;;2.9;1.5;;;;;;;9.13;79.78;96771.666666667;;;;
2024/02/23 02:01:26;;;;;;;4;1.6;;;;;;;9.22;78.65;96776.666666667;;;;
2024/02/23 02:12:25;;;;;;;4;1.6;;;;;;;9.21;78.01;96780;;;;
2024/02/23 02:22:25;;;;;;;4;1.6;;;;;;;9.17;77.88;96773.333333333;;;;
2024/02/23 02:33:25;;;;;;;3.1;1.7;;;;;;;9.22;77.34;96768.333333333;;;;
2024/02/23 02:43:25;;;;;;;3.1;1.7;;;;;;;9.23;76.5;96786.666666667;;;;
2024/02/23 02:54:25;;;;;;;3.1;1.7;;;;;;;9.29;75.72;96790;;;;
2024/02/23 03:04:27;;;;;;;3.1;1.8;;;;;;;9.34;74.8;96786.666666667;;;;
2024/02/23 03:14:28;;;;;;;3.1;1.8;;;;;;;9.37;74.48;96785;;;;
2024/02/23 03:25:27;;;;;;;3.1;1.8;;;;;;;9.33;74.52;96775;;;;
2024/02/23 03:36:27;;;;;;;3;1.3;;;;;;;9.3;74.15;96778.333333333;;;;
2024/02/23 03:47:27;;;;;;;3;1.3;;;;;;;9.28;74.39;96790;;;;
2024/02/23 03:57:27;;;;;;;11.9;7;;;;;;;9.25;74.06;96803.333333333;;;;
2024/02/23 04:07:27;;;;;;;11.9;7;;;;;;;9.21;74.56;96820;;;;
2024/02/23 04:18:27;;;;;;;11.9;7;;;;;;;9.2;75.53;96826.666666667;;;;
2024/02/23 04:28:30;;;;;;;5.5;3.2;;;;;;;9.11;76.66;96833.333333333;;;;
2024/02/23 04:38:27;;;;;;;5.5;3.2;;;;;;;9.02;77.81;96845;;;;
2024/02/23 04:49:27;;;;;;;5.5;3.2;;;;;;;8.93;79.13;96848.333333333;;;;
2024/02/23 04:59:28;;;;;;;5.8;2.1;;;;;;;8.81;79.29;96855;;;;
2024/02/23 05:09:27;;;;;;;5.8;2.1;;;;;;;8.61;80.81;96865;;;;
2024/02/23 05:19:27;;;;;;;5.8;2.1;;;;;;;8.56;81.28;96875;;;;
2024/02/23 05:29:27;;;;;;;5;2.3;;;;;;;8.57;81.55;96891.666666667;;;;
2024/02/23 05:39:29;;;;;;;5;2.3;;;;;;;8.59;81.88;96906.666666667;;;;
2024/02/23 05:49:27;;;;;;;5;2.3;;;;;;;8.63;82.07;96918.333333333;;;;
2024/02/23 06:00:27;;;;;;;3.4;1.6;;;;;;;8.79;81.76;96938.333333333;;;;
2024/02/23 06:10:27;;;;;;;3.4;1.6;;;;;;;8.92;81.68;96941.666666667;;;;
2024/02/23 06:20:27;;;;;;;3.4;1.6;;;;;;;9.01;81.98;96961.666666667;;;;
2024/02/23 06:31:27;;;;;;;4;1.9;;;;;;;9.06;82.9;96981.666666667;;;;
2024/02/23 06:42:27;;;;;;;4;1.9;;;;;;;9.23;83.08;96990;;;;
2024/02/23 06:53:27;;;;;;;4;1.9;;;;;;;9.36;84.08;97003.333333333;;;;
2024/02/23 07:03:27;;;;;;;5;2.5;;;;;;;9.65;84.07;97015;;;;
2024/02/23 07:13:27;;;;;;;5;2.5;;;;;;;9.94;84.03;97023.333333333;;;;
2024/02/23 07:23:27;;;;;;;5;2.5;;;;;;;10.06;83.85;97036.666666667;;;;
2024/02/23 07:33:27;;;;;;;8.6;3.6;;;;;;;10.15;83.23;97058.333333333;;;;
2024/02/23 07:44:27;;;;;;;8.6;3.6;;;;;;;10.12;83.73;97078.333333333;;;;
2024/02/23 07:55:27;;;;;;;8.6;3.6;;;;;;;10.24;83.73;97095;;;;
2024/02/23 08:06:27;;;;;;;7.2;4.9;;;;;;;10.22;83.77;97108.333333333;;;;
2024/02/23 08:17:27;;;;;;;7.2;4.9;;;;;;;10.18;83.93;97120;;;;
2024/02/23 08:27:27;;;;;;;8.9;5.7;;;;;;;9.98;83.38;97118.333333333;;;;
2024/02/23 08:37:27;;;;;;;8.9;5.7;;;;;;;9.7;82.55;97118.333333333;;;;
2024/02/23 08:48:27;;;;;;;8.9;5.7;;;;;;;9.69;83.51;97130;;;;
2024/02/23 08:59:27;;;;;;;4.1;2.2;;;;;;;9.82;83.63;97143.333333333;;;;
2024/02/23 09:09:27;;;;;;;4.1;2.2;;;;;;;9.75;83.82;97141.666666667;;;;
2024/02/23 09:19:27;;;;;;;4.1;2.2;;;;;;;9.9;83.62;97153.333333333;;;;
2024/02/23 09:30:27;;;;;;;4.6;2.9;;;;;;;10.2;83.02;97161.666666667;;;;
2024/02/23 09:41:27;;;;;;;4.6;2.9;;;;;;;10.2;83.55;97185;;;;
2024/02/23 09:51:27;;;;;;;4.6;2.9;;;;;;;10.37;83.33;97215;;;;
2024/02/23 10:02:28;;;;;;;5.8;3.4;;;;;;;10.56;82.99;97221.666666667;;;;
2024/02/23 10:13:27;;;;;;;5.8;3.4;;;;;;;11.03;82.26;97221.666666667;;;;
2024/02/23 10:23:27;;;;;;;5.8;3.4;;;;;;;11.02;82.92;97221.666666667;;;;
2024/02/23 10:34:27;;;;;;;7.8;4.6;;;;;;;11.52;81.4;97230;;;;
2024/02/23 10:44:27;;;;;;;7.8;4.6;;;;;;;11.65;79.18;97221.666666667;;;;
2024/02/23 10:55:27;;;;;;;7.8;4.6;;;;;;;11.71;77.34;97231.666666667;;;;
2024/02/23 11:05:28;;;;;;;5.7;3.4;;;;;;;11.64;77.63;97226.666666667;;;;
2024/02/23 11:15:27;;;;;;;5.7;3.4;;;;;;;11.85;76.7;97238.333333333;;;;
2024/02/23 11:25:28;;;;;;;5.7;3.4;;;;;;;12.01;75.67;97250;;;;
2024/02/23 11:35:27;;;;;;;4.9;2.8;;;;;;;12.07;77.59;97243.333333333;;;;
2024/02/23 11:46:27;;;;;;;4.9;2.8;;;;;;;12.68;74.51;97246.666666667;;;;
2024/02/23 11:56:28;;;;;;;4.9;2.8;;;;;;;12.55;71.88;97250;;;;
2024/02/23 12:07:28;;;;;;;5.6;3.2;;;;;;;12.65;73.93;97265;;;;
2024/02/23 12:18:29;;;;;;;5.6;3.2;;;;;;;12.89;72.21;97275;;;;
2024/02/23 12:29:28;;;;;;;7.1;3.4;;;;;;;12.48;74.27;97281.666666667;;;;
2024/02/23 12:39:27;;;;;;;7.1;3.4;;;;;;;12.78;73.41;97281.666666667;;;;
2024/02/23 12:50:27;;;;;;;7.1;3.4;;;;;;;12.7;73.57;97288.333333333;;;;
2024/02/23 13:00:27;;;;;;;6.6;4.5;;;;;;;12.51;74.48;97291.666666667;;;;
2024/02/23 13:11:27;;;;;;;6.6;4.5;;;;;;;12.3;75.66;97300;;;;
2024/02/23 13:22:28;;;;;;;6.6;4.5;;;;;;;12.02;76.98;97296.666666667;;;;
2024/02/23 13:33:29;;;;;;;6.1;3.5;;;;;;;12.01;76.39;97308.333333333;;;;
2024/02/23 13:43:27;;;;;;;6.1;3.5;;;;;;;11.78;76.89;97323.333333333;;;;
2024/02/23 13:53:28;;;;;;;6.1;3.5;;;;;;;11.66;77.61;97323.333333333;;;;
2024/02/23 14:04:27;;;;;;;5.5;3.1;;;;;;;11.04;77.22;97335;;;;
2024/02/23 14:15:28;;;;;;;5.5;3.1;;;;;;;10.99;76.36;97331.666666667;;;;
2024/02/23 14:26:27;;;;;;;5.5;3.1;;;;;;;10.73;77.85;97325;;;;
2024/02/23 14:36:28;;;;;;;3.2;1.6;;;;;;;10.65;78.89;97326.666666667;;;;
2024/02/23 14:47:27;;;;;;;3.2;1.6;;;;;;;10.77;79.25;97336.666666667;;;;
2024/02/23 14:58:27;;;;;;;9;4.2;;;;;;;10.79;80.34;97348.333333333;;;;
2024/02/23 15:08:28;;;;;;;9;4.2;;;;;;;10.52;82.3;97355;;;;
2024/02/23 15:18:28;;;;;;;9;4.2;;;;;;;10.48;81.06;97340;;;;
2024/02/23 15:28:28;;;;;;;15.1;8.8;;;;;;;10.35;82.42;97345;;;;
2024/02/23 15:39:28;;;;;;;15.1;8.8;;;;;;;10.18;83.89;97348.333333333;;;;
2024/02/23 15:50:28;;;;;;;15.1;8.8;;;;;;;9.86;85.32;97351.666666667;;;;
2024/02/23 16:00:28;;;;;;;9.5;4.8;;;;;;;9.89;84.76;97366.666666667;;;;
2024/02/23 16:11:28;;;;;;;9.5;4.8;;;;;;;9.77;84.61;97366.666666667;;;;
2024/02/23 16:22:27;;;;;;;9.5;4.8;;;;;;;9.59;84.72;97380;;;;
2024/02/23 16:32:28;;;;;;;9.3;6.6;;;;;;;9.35;85.02;97381.666666667;;;;
2024/02/23 16:42:28;;;;;;;9.3;6.6;;;;;;;9.26;84.76;97378.333333333;;;;
2024/02/23 16:53:27;;;;;;;9.3;6.6;;;;;;;9.08;84.95;97368.333333333;;;;
2024/02/23 17:03:28;;;;;;;21.9;12.2;;;;;;;9;84.72;97356.666666667;;;;
2024/02/23 17:14:28;;;;;;;21.9;12.2;;;;;;;8.95;85;97381.666666667;;;;
2024/02/23 17:25:28;;;;;;;21.9;12.2;;;;;;;8.92;85.5;97376.666666667;;;;
2024/02/23 17:35:28;;;;;;;14.9;9.8;;;;;;;8.88;86.15;97383.333333333;;;;
2024/02/23 17:46:28;;;;;;;14.9;9.8;;;;;;;8.85;86.91;97383.333333333;;;;
2024/02/23 17:57:28;;;;;;;20.2;12.7;;;;;;;8.81;86.94;97378.333333333;;;;
2024/02/23 18:08:28;;;;;;;20.2;12.7;;;;;;;8.87;86.05;97350;;;;
2024/02/23 18:19:28;;;;;;;20.2;12.7;;;;;;;8.74;86.3;97356.666666667;;;;
2024/02/23 18:30:28;;;;;;;19.2;10.9;;;;;;;8.78;86.2;97358.333333333;;;;
2024/02/23 18:41:28;;;;;;;19.2;10.9;;;;;;;8.9;85.7;97376.666666667;;;;
2024/02/23 18:51:28;;;;;;;19.2;10.9;;;;;;;8.92;85.76;97361.666666667;;;;
2024/02/23 19:02:28;;;;;;;22.3;13.7;;;;;;;8.9;85.89;97360;;;;
2024/02/23 19:12:28;;;;;;;22.3;13.7;;;;;;;8.89;85.3;97363.333333333;;;;
2024/02/23 19:23:28;;;;;;;22.3;13.7;;;;;;;8.86;81.99;97348.333333333;;;;
2024/02/23 19:33:28;;;;;;;21.2;13.8;;;;;;;8.87;83.17;97355;;;;
2024/02/23 19:44:29;;;;;;;21.2;13.8;;;;;;;8.8;84.39;97351.666666667;;;;
2024/02/23 19:54:28;;;;;;;21.2;13.8;;;;;;;8.87;83.91;97340;;;;
2024/02/23 20:04:28;;;;;;;14.1;8.1;;;;;;;8.96;83.71;97340;;;;
2024/02/23 20:15:28;;;;;;;14.1;8.1;;;;;;;8.98;82.85;97326.666666667;;;;
2024/02/23 20:26:28;;;;;;;12.3;7.5;;;;;;;8.88;83.6;97320;;;;
2024/02/23 20:37:29;;;;;;;12.3;7.5;;;;;;;8.91;83.15;97333.333333333;;;;
2024/02/23 20:47:29;;;;;;;12.3;7.5;;;;;;;8.91;83.18;97335;;;;
2024/02/23 20:58:28;;;;;;;13.5;7.6;;;;;;;8.8;83.47;97318.333333333;;;;
2024/02/23 21:09:28;;;;;;;13.5;7.6;;;;;;;8.71;83.68;97308.333333333;;;;
2024/02/23 21:19:28;;;;;;;13.5;7.6;;;;;;;8.57;83.7;97286.666666667;;;;
2024/02/23 21:29:28;;;;;;;13.4;8.2;;;;;;;8.49;83.48;97291.666666667;;;;
2024/02/23 21:40:28;;;;;;;13.4;8.2;;;;;;;8.41;83.12;97286.666666667;;;;
2024/02/23 21:51:28;;;;;;;13.4;8.2;;;;;;;8.28;83.22;97296.666666667;;;;
2024/02/23 22:01:30;;;;;;;14.2;6.8;;;;;;;8.26;83.28;97300;;;;
2024/02/23 22:12:29;;;;;;;14.2;6.8;;;;;;;8.43;82.68;97300;;;;
2024/02/23 22:22:28;;;;;;;14.2;6.8;;;;;;;8.4;82.68;97298.333333333;;;;
2024/02/23 22:32:28;;;;;;;12;7.1;;;;;;;8.43;82.65;97296.666666667;;;;
2024/02/23 22:43:28;;;;;;;12;7.1;;;;;;;8.24;82.89;97258.333333333;;;;
2024/02/23 22:54:28;;;;;;;12;7.1;;;;;;;8.41;81.54;97248.333333333;;;;
2024/02/23 23:04:28;;;;;;;10.8;5.7;;;;;;;8.57;80.16;97251.666666667;;;;
2024/02/23 23:15:28;;;;;;;10.8;5.7;;;;;;;8.56;80.16;97235;;;;
2024/02/23 23:25:28;;;;;;;10.8;5.7;;;;;;;8.52;79.78;97235;;;;
2024/02/23 23:35:28;;;;;;;8.6;3.9;;;;;;;8.57;79.79;97228.333333333;;;;
2024/02/23 23:45:28;;;;;;;8.6;3.9;;;;;;;8.46;80.17;97226.666666667;;;;
2024/02/23 23:56:28;;;;;;;8.2;3.5;;;;;;;8.29;81.05;97228.333333333;;;;
